createdAt,value
2019-02-10T00:00:39.989Z,8.40
2019-02-10T00:03:10.288Z,8.33
2019-02-10T00:05:40.571Z,8.70
2019-02-10T00:08:11.803Z,9.28
2019-02-10T00:10:42.134Z,8.30
2019-02-10T00:13:30.369Z,9.05
2019-02-10T00:16:01.845Z,8.95
2019-02-10T00:18:32.169Z,8.70
2019-02-10T00:21:02.477Z,8.78
2019-02-10T00:23:33.044Z,9.55
2019-02-10T00:26:06.383Z,8.50
2019-02-10T00:28:36.717Z,8.95
2019-02-10T00:31:06.966Z,8.20
2019-02-10T00:33:38.326Z,8.30
2019-02-10T00:36:08.739Z,8.95
2019-02-10T00:38:40.186Z,9.15
2019-02-10T00:41:10.474Z,8.95
2019-02-10T00:43:41.025Z,8.98
2019-02-10T00:46:11.556Z,9.30
2019-02-10T00:48:41.906Z,8.75
2019-02-10T00:51:12.417Z,9.20
2019-02-10T00:53:42.740Z,9.48
2019-02-10T00:56:13.039Z,8.33
2019-02-10T00:58:43.284Z,8.98
2019-02-10T01:01:13.553Z,8.45
2019-02-10T01:03:43.947Z,8.43
2019-02-10T01:06:14.183Z,8.48
2019-02-10T01:08:44.513Z,8.33
2019-02-10T01:11:14.883Z,9.00
2019-02-10T01:13:48.782Z,7.75
2019-02-10T01:16:19.021Z,8.73
2019-02-10T01:19:08.991Z,8.28
2019-02-10T01:21:40.941Z,8.48
2019-02-10T01:24:11.269Z,8.03
2019-02-10T01:26:41.567Z,8.53
2019-02-10T01:29:11.872Z,8.35
2019-02-10T01:31:42.271Z,8.98
2019-02-10T01:34:12.579Z,8.58
2019-02-10T01:36:49.504Z,8.50
2019-02-10T01:39:22.334Z,9.25
2019-02-10T01:41:52.714Z,8.60
2019-02-10T01:44:22.973Z,8.55
2019-02-10T01:46:55.720Z,8.90
2019-02-10T01:49:26.969Z,8.73
2019-02-10T01:51:58.335Z,8.55
2019-02-10T01:54:28.592Z,8.23
2019-02-10T01:57:00.980Z,9.05
2019-02-10T01:59:31.341Z,8.73
2019-02-10T02:02:01.708Z,7.92
2019-02-10T02:04:32.014Z,7.92
2019-02-10T02:07:02.894Z,8.58
2019-02-10T02:09:33.234Z,8.10
2019-02-10T02:12:04.350Z,8.85
2019-02-10T02:14:34.563Z,8.10
2019-02-10T02:17:09.106Z,9.18
2019-02-10T02:19:39.358Z,8.20
2019-02-10T02:22:09.653Z,8.38
2019-02-10T02:24:39.916Z,7.70
2019-02-10T02:27:10.227Z,8.68
2019-02-10T02:29:40.659Z,8.03
2019-02-10T02:32:11.007Z,8.48
2019-02-10T02:34:41.324Z,8.23
2019-02-10T02:37:13.232Z,8.63
2019-02-10T02:39:43.594Z,8.45
2019-02-10T02:42:14.912Z,8.68
2019-02-10T02:44:45.255Z,8.05
2019-02-10T02:47:15.583Z,8.03
2019-02-10T02:49:45.960Z,8.10
2019-02-10T02:52:16.303Z,8.18
2019-02-10T02:54:48.176Z,8.38
2019-02-10T02:57:18.480Z,7.87
2019-02-10T02:59:48.844Z,8.18
2019-02-10T03:02:19.132Z,8.33
2019-02-10T03:14:42.654Z,8.13
2019-02-10T03:17:15.823Z,7.67
2019-02-10T03:19:46.157Z,8.40
2019-02-10T03:22:16.751Z,8.20
2019-02-10T03:24:47.033Z,8.68
2019-02-10T03:27:17.341Z,7.87
2019-02-10T03:29:47.608Z,8.78
2019-02-10T03:32:17.964Z,7.92
2019-02-10T03:34:48.304Z,7.65
2019-02-10T03:37:26.880Z,8.25
2019-02-10T03:39:52.387Z,8.10
2019-02-10T03:42:22.625Z,8.38
2019-02-10T03:44:53.012Z,8.28
2019-02-10T03:47:23.393Z,6.60
2019-02-10T03:49:53.717Z,8.23
2019-02-10T03:52:24.107Z,7.35
2019-02-10T03:54:54.519Z,8.58
2019-02-10T03:57:24.922Z,7.55
2019-02-10T03:59:55.254Z,7.97
2019-02-10T04:02:25.480Z,7.95
2019-02-10T04:04:57.283Z,7.20
2019-02-10T04:07:35.649Z,7.83
2019-02-10T04:09:59.562Z,7.20
2019-02-10T04:12:29.926Z,8.05
2019-02-10T04:15:01.616Z,7.62
2019-02-10T04:17:31.954Z,7.00
2019-02-10T04:20:02.313Z,7.70
2019-02-10T04:22:32.948Z,7.47
2019-02-10T04:25:03.234Z,7.87
2019-02-10T04:27:33.572Z,7.58
2019-02-10T04:30:03.908Z,8.08
2019-02-10T04:32:34.277Z,7.78
2019-02-10T04:35:07.157Z,7.30
2019-02-10T04:37:45.316Z,7.67
2019-02-10T04:40:09.821Z,7.55
2019-02-10T04:42:40.049Z,7.83
2019-02-10T04:45:10.405Z,7.12
2019-02-10T04:47:40.773Z,7.08
2019-02-10T04:50:11.021Z,7.67
2019-02-10T04:52:41.363Z,7.25
2019-02-10T04:55:11.809Z,7.55
2019-02-10T04:57:42.097Z,7.80
2019-02-10T05:00:12.462Z,7.50
2019-02-10T05:02:42.794Z,7.05
2019-02-10T05:05:13.115Z,7.45
2019-02-10T05:07:43.376Z,7.67
2019-02-10T05:10:13.601Z,7.65
2019-02-10T05:12:43.856Z,7.03
2019-02-10T05:15:14.195Z,7.15
2019-02-10T05:17:44.492Z,6.95
2019-02-10T05:20:14.821Z,7.30
2019-02-10T05:22:45.168Z,6.40
2019-02-10T05:25:15.486Z,7.20
2019-02-10T05:27:45.821Z,7.28
2019-02-10T05:30:16.232Z,7.08
2019-02-10T05:32:46.667Z,7.00
2019-02-10T05:35:16.993Z,7.08
2019-02-10T05:38:04.242Z,9.00
2019-02-10T05:40:33.785Z,8.45
2019-02-10T05:43:09.533Z,7.70
2019-02-10T05:45:51.159Z,7.78
2019-02-10T05:48:26.937Z,7.30
2019-02-10T05:50:58.477Z,7.42
2019-02-10T05:53:34.884Z,6.90
2019-02-10T05:56:13.334Z,7.10
2019-02-10T05:58:44.131Z,7.95
2019-02-10T06:01:50.136Z,7.42
2019-02-10T06:04:20.702Z,7.03
2019-02-10T06:06:53.906Z,7.00
2019-02-10T06:09:24.856Z,7.78
2019-02-10T06:11:55.193Z,7.58
2019-02-10T06:14:34.425Z,7.25
2019-02-10T06:17:06.067Z,8.20
2019-02-10T06:19:36.800Z,8.13
2019-02-10T06:22:07.210Z,8.33
2019-02-10T06:24:37.563Z,8.10
2019-02-10T06:27:07.944Z,8.78
2019-02-10T06:29:40.737Z,9.13
2019-02-10T06:32:10.996Z,9.25
2019-02-10T06:34:41.427Z,10.23
2019-02-10T06:37:11.838Z,9.65
2019-02-10T06:39:42.183Z,9.95
2019-02-10T06:42:14.069Z,9.98
2019-02-10T06:44:44.378Z,11.45
2019-02-10T06:47:15.027Z,11.40
2019-02-10T06:49:45.643Z,10.88
2019-02-10T06:52:16.031Z,10.70
2019-02-10T06:54:54.941Z,11.28
2019-02-10T06:57:26.705Z,11.40
2019-02-10T07:00:34.062Z,12.03
2019-02-10T07:03:39.350Z,11.93
2019-02-10T07:06:10.287Z,11.73
2019-02-10T07:08:41.015Z,12.18
2019-02-10T07:11:11.478Z,12.30
2019-02-10T07:13:44.166Z,11.73
2019-02-10T07:16:45.844Z,11.78
2019-02-10T07:19:51.809Z,12.35
2019-02-10T07:23:04.719Z,12.70
2019-02-10T07:26:08.461Z,12.58
2019-02-10T07:29:31.566Z,12.20
2019-02-10T07:32:21.644Z,13.65
2019-02-10T07:35:25.457Z,13.10
2019-02-10T07:38:22.884Z,12.43
2019-02-10T07:41:30.059Z,13.62
2019-02-10T07:44:24.433Z,12.78
2019-02-10T07:47:47.934Z,13.60
2019-02-10T07:50:54.755Z,12.73
2019-02-10T07:53:46.467Z,13.70
2019-02-10T07:57:06.030Z,13.90
2019-02-10T08:00:07.179Z,14.15
2019-02-10T08:03:03.830Z,14.43
2019-02-10T08:05:59.908Z,13.13
2019-02-10T08:08:52.480Z,14.75
2019-02-10T08:11:54.961Z,13.90
2019-02-10T08:14:36.253Z,14.18
2019-02-10T08:17:41.940Z,13.75
2019-02-10T08:20:57.909Z,14.58
2019-02-10T08:24:11.068Z,15.28
2019-02-10T08:27:18.294Z,13.48
2019-02-10T08:30:16.474Z,15.90
2019-02-10T08:33:42.763Z,15.60
2019-02-10T08:37:05.833Z,15.15
2019-02-10T08:40:14.092Z,15.05
2019-02-10T08:43:29.809Z,16.32
2019-02-10T08:46:34.691Z,20.90
2019-02-10T08:49:44.357Z,23.30
2019-02-10T08:52:51.756Z,22.60
2019-02-10T08:55:16.742Z,19.73
2019-02-10T08:57:47.324Z,21.12
2019-02-10T09:00:17.819Z,22.62
2019-02-10T09:02:48.140Z,26.48
2019-02-10T09:05:19.550Z,24.47
2019-02-10T09:07:49.874Z,22.40
2019-02-10T09:10:21.630Z,24.23
2019-02-10T09:12:54.943Z,22.48
2019-02-10T09:15:24.109Z,21.77
2019-02-10T09:17:54.446Z,26.05
2019-02-10T09:20:24.839Z,22.45
2019-02-10T09:22:56.678Z,24.15
2019-02-10T09:25:27.046Z,22.58
2019-02-10T09:27:57.422Z,21.95
2019-02-10T09:30:27.773Z,25.35
2019-02-10T09:33:00.020Z,22.48
2019-02-10T09:35:31.556Z,25.00
2019-02-10T09:38:01.983Z,26.68
2019-02-10T09:40:32.276Z,22.00
2019-02-10T09:43:02.942Z,23.20
2019-02-10T09:45:33.681Z,25.20
2019-02-10T09:48:05.587Z,25.05
2019-02-10T09:50:36.051Z,23.75
2019-02-10T09:53:06.379Z,22.85
2019-02-10T09:55:37.488Z,20.60
2019-02-10T09:58:07.793Z,25.77
2019-02-10T10:00:39.182Z,22.37
2019-02-10T10:03:09.609Z,23.73
2019-02-10T10:05:40.997Z,23.05
2019-02-10T10:08:13.441Z,21.57
2019-02-10T10:10:44.062Z,21.02
2019-02-10T10:13:14.440Z,19.07
2019-02-10T10:15:47.701Z,21.33
2019-02-10T10:18:17.154Z,22.13
2019-02-10T10:20:47.543Z,23.57
2019-02-10T10:23:18.229Z,23.62
2019-02-10T10:25:48.536Z,23.92
2019-02-10T10:28:19.014Z,23.22
2019-02-10T10:30:49.328Z,21.60
2019-02-10T10:33:20.743Z,26.10
2019-02-10T10:35:51.067Z,18.20
2019-02-10T10:38:21.487Z,18.50
2019-02-10T10:40:53.561Z,17.55
2019-02-10T10:43:23.958Z,19.37
2019-02-10T10:45:54.326Z,21.12
2019-02-10T10:48:24.697Z,19.85
2019-02-10T10:50:56.159Z,18.48
2019-02-10T10:53:28.253Z,18.92
2019-02-10T10:55:58.605Z,17.57
2019-02-10T10:58:28.935Z,18.62
2019-02-10T11:00:59.306Z,18.85
2019-02-10T11:03:29.835Z,18.95
2019-02-10T11:06:00.220Z,19.05
2019-02-10T11:08:30.494Z,19.02
2019-02-10T11:11:00.821Z,18.82
2019-02-10T11:13:31.179Z,19.77
2019-02-10T11:16:01.620Z,20.05
2019-02-10T11:18:31.962Z,18.42
2019-02-10T11:21:02.237Z,20.15
2019-02-10T11:23:32.644Z,21.20
2019-02-10T11:26:02.955Z,19.80
2019-02-10T11:28:33.527Z,21.70
2019-02-10T11:31:03.843Z,20.02
2019-02-10T11:33:36.373Z,20.40
2019-02-10T11:36:06.591Z,19.52
2019-02-10T11:38:36.932Z,20.10
2019-02-10T11:41:07.226Z,19.07
2019-02-10T11:43:37.613Z,19.95
2019-02-10T11:46:07.906Z,20.45
2019-02-10T11:48:38.622Z,18.77
2019-02-10T11:51:08.849Z,19.23
2019-02-10T11:53:39.284Z,20.02
2019-02-10T11:56:11.690Z,18.98
2019-02-10T11:58:42.156Z,21.57
2019-02-10T12:01:12.562Z,19.17
2019-02-10T12:03:42.854Z,20.00
2019-02-10T12:06:13.218Z,19.77
2019-02-10T12:08:43.931Z,19.60
2019-02-10T12:11:14.310Z,19.70
2019-02-10T12:13:44.656Z,20.02
2019-02-10T12:16:15.040Z,18.98
2019-02-10T12:18:45.679Z,20.15
2019-02-10T12:21:16.040Z,19.73
2019-02-10T12:23:46.374Z,19.82
2019-02-10T12:26:18.827Z,19.67
2019-02-10T12:28:51.695Z,19.45
2019-02-10T12:31:22.027Z,19.40
2019-02-10T12:33:52.675Z,20.43
2019-02-10T12:36:22.983Z,19.95
2019-02-10T12:38:53.479Z,19.27
2019-02-10T12:41:25.613Z,19.95
2019-02-10T12:43:55.839Z,20.75
2019-02-10T12:46:30.157Z,19.73
2019-02-10T12:49:03.022Z,20.25
2019-02-10T12:51:33.316Z,19.87
2019-02-10T12:54:03.658Z,20.43
2019-02-10T12:56:34.018Z,19.85
2019-02-10T12:59:07.579Z,19.67
2019-02-10T13:01:38.912Z,19.23
2019-02-10T13:04:09.274Z,18.80
2019-02-10T13:06:39.998Z,19.32
2019-02-10T13:09:12.322Z,20.25
2019-02-10T13:11:42.744Z,19.30
2019-02-10T13:14:13.148Z,20.12
2019-02-10T13:16:43.944Z,19.32
2019-02-10T13:19:14.467Z,19.62
2019-02-10T13:21:44.900Z,19.80
2019-02-10T13:24:15.264Z,19.40
2019-02-10T13:26:45.576Z,20.27
2019-02-10T13:29:16.174Z,19.52
2019-02-10T13:31:46.567Z,19.02
2019-02-10T13:34:16.970Z,19.57
2019-02-10T13:36:48.384Z,20.30
2019-02-10T13:39:18.812Z,20.62
2019-02-10T13:41:47.481Z,19.25
2019-02-10T13:44:17.796Z,19.70
2019-02-10T13:46:47.124Z,20.25
2019-02-10T13:49:17.561Z,19.07
2019-02-10T13:51:48.895Z,20.60
2019-02-10T13:54:19.272Z,19.57
2019-02-10T13:56:49.621Z,19.32
2019-02-10T13:59:19.923Z,19.73
2019-02-10T14:01:50.341Z,18.77
2019-02-10T14:04:20.616Z,19.82
2019-02-10T14:06:50.976Z,18.73
2019-02-10T14:09:25.240Z,18.70
2019-02-10T14:11:55.666Z,19.60
2019-02-10T14:14:25.895Z,19.73
2019-02-10T14:16:56.328Z,19.65
2019-02-10T14:19:26.698Z,19.50
2019-02-10T14:21:56.939Z,19.82
2019-02-10T14:24:28.339Z,19.85
2019-02-10T14:26:58.723Z,19.90
2019-02-10T14:29:29.057Z,18.92
2019-02-10T14:31:59.385Z,19.70
2019-02-10T14:34:30.028Z,19.55
2019-02-10T14:37:00.382Z,19.32
2019-02-10T14:39:30.760Z,19.40
2019-02-10T14:42:01.114Z,19.42
2019-02-10T14:44:31.679Z,20.62
2019-02-10T14:47:01.916Z,19.75
2019-02-10T14:49:32.309Z,19.07
2019-02-10T14:52:02.904Z,18.92
2019-02-10T14:54:33.206Z,19.70
2019-02-10T14:57:03.635Z,19.67
2019-02-10T14:59:33.958Z,19.90
2019-02-10T15:02:06.116Z,19.60
2019-02-10T15:04:38.974Z,20.35
2019-02-10T15:07:11.345Z,19.15
2019-02-10T15:09:41.729Z,19.15
2019-02-10T15:12:12.069Z,18.92
2019-02-10T15:14:42.473Z,19.05
2019-02-10T15:17:15.338Z,19.35
2019-02-10T15:19:45.698Z,20.05
2019-02-10T15:22:16.039Z,19.87
2019-02-10T15:24:46.648Z,18.87
2019-02-10T15:27:16.984Z,19.40
2019-02-10T15:29:47.297Z,19.10
2019-02-10T15:32:17.603Z,19.48
2019-02-10T15:34:47.959Z,19.73
2019-02-10T15:37:18.301Z,18.73
2019-02-10T15:39:48.700Z,20.57
2019-02-10T15:42:20.092Z,20.52
2019-02-10T15:44:50.437Z,19.62
2019-02-10T15:47:20.925Z,20.00
2019-02-10T15:49:51.295Z,20.72
2019-02-10T15:52:26.879Z,20.00
2019-02-10T15:54:57.139Z,20.55
2019-02-10T15:57:27.517Z,20.50
2019-02-10T15:59:57.835Z,19.85
2019-02-10T16:02:28.171Z,19.90
2019-02-10T16:04:58.808Z,19.57
2019-02-10T16:07:29.104Z,20.20
2019-02-10T16:09:59.478Z,20.77
2019-02-10T16:12:29.797Z,20.30
2019-02-10T16:15:00.695Z,20.35
2019-02-10T16:17:32.943Z,20.05
2019-02-10T16:20:03.499Z,21.05
2019-02-10T16:22:33.798Z,20.35
2019-02-10T16:25:04.130Z,20.60
2019-02-10T16:27:34.419Z,19.92
2019-02-10T16:30:05.612Z,20.30
2019-02-10T16:32:37.158Z,20.25
2019-02-10T16:35:07.878Z,19.50
2019-02-10T16:37:39.920Z,19.30
2019-02-10T16:40:12.880Z,18.85
2019-02-10T16:42:43.336Z,19.62
2019-02-10T16:45:17.781Z,19.10
2019-02-10T16:47:48.171Z,18.95
2019-02-10T16:50:18.580Z,18.37
2019-02-10T16:52:48.980Z,18.52
2019-02-10T16:55:19.424Z,19.02
2019-02-10T16:57:50.083Z,17.75
2019-02-10T17:00:20.500Z,18.60
2019-02-10T17:02:50.883Z,18.15
2019-02-10T17:05:21.253Z,17.62
2019-02-10T17:07:51.931Z,17.02
2019-02-10T17:10:22.379Z,18.60
2019-02-10T17:12:52.832Z,17.25
2019-02-10T17:15:23.160Z,17.40
2019-02-10T17:17:53.511Z,17.87
2019-02-10T17:20:23.856Z,17.02
2019-02-10T17:22:56.733Z,17.85
2019-02-10T17:25:27.123Z,17.62
2019-02-10T17:27:57.484Z,16.60
2019-02-10T17:30:27.842Z,16.70
2019-02-10T17:33:00.284Z,16.85
2019-02-10T17:35:30.618Z,17.73
2019-02-10T17:38:00.960Z,16.75
2019-02-10T17:40:37.423Z,17.35
2019-02-10T17:43:07.821Z,16.42
2019-02-10T17:45:38.203Z,16.50
2019-02-10T17:48:08.518Z,16.40
2019-02-10T17:50:39.180Z,15.58
2019-02-10T17:53:12.683Z,16.27
2019-02-10T17:55:43.205Z,16.25
2019-02-10T17:58:13.516Z,15.88
2019-02-10T18:00:46.671Z,16.30
2019-02-10T18:03:18.571Z,16.62
2019-02-10T18:05:48.967Z,16.75
2019-02-10T18:08:19.279Z,15.90
2019-02-10T18:10:50.717Z,16.97
2019-02-10T18:13:21.000Z,15.95
2019-02-10T18:16:28.738Z,15.68
2019-02-10T18:19:18.062Z,16.35
2019-02-10T18:22:22.265Z,16.02
2019-02-10T18:25:11.497Z,16.50
2019-02-10T18:28:05.046Z,15.70
2019-02-10T18:30:51.731Z,15.68
2019-02-10T18:33:44.217Z,17.00
2019-02-10T18:36:39.120Z,16.05
2019-02-10T18:39:37.269Z,15.95
2019-02-10T18:42:26.449Z,16.32
2019-02-10T18:45:31.105Z,16.67
2019-02-10T18:48:37.347Z,16.65
2019-02-10T18:51:29.571Z,17.55
2019-02-10T18:54:22.383Z,16.20
2019-02-10T18:57:06.439Z,18.02
2019-02-10T18:59:55.706Z,17.70
2019-02-10T19:02:45.908Z,18.92
2019-02-10T19:05:35.215Z,19.20
2019-02-10T19:08:13.691Z,20.45
2019-02-10T19:11:14.909Z,19.50
2019-02-10T19:14:06.860Z,19.73
2019-02-10T19:16:54.752Z,18.42
2019-02-10T19:19:33.112Z,19.57
2019-02-10T19:22:15.726Z,19.27
2019-02-10T19:25:06.304Z,19.60
2019-02-10T19:27:53.677Z,19.95
2019-02-10T19:30:46.956Z,19.42
2019-02-10T19:33:38.374Z,19.15
2019-02-10T19:36:28.276Z,19.50
2019-02-10T19:39:17.216Z,19.20
2019-02-10T19:42:09.121Z,20.27
2019-02-10T19:45:07.102Z,19.23
2019-02-10T19:47:48.186Z,20.23
2019-02-10T19:50:53.603Z,20.50
2019-02-10T19:53:53.506Z,20.17
2019-02-10T19:56:41.733Z,20.20
2019-02-10T19:59:49.406Z,20.30
2019-02-10T20:02:37.772Z,20.08
2019-02-10T20:05:33.025Z,20.65
2019-02-10T20:08:17.097Z,20.60
2019-02-10T20:11:06.334Z,19.23
2019-02-10T20:13:58.630Z,18.92
2019-02-10T20:16:56.844Z,20.02
2019-02-10T20:19:44.768Z,19.67
2019-02-10T20:22:21.025Z,19.37
2019-02-10T20:25:13.152Z,19.35
2019-02-10T20:27:56.555Z,19.00
2019-02-10T20:30:46.322Z,19.10
2019-02-10T20:33:35.576Z,20.17
2019-02-10T20:36:26.374Z,20.17
2019-02-10T20:39:09.834Z,18.70
2019-02-10T20:41:48.150Z,19.00
2019-02-10T20:44:37.495Z,18.95
2019-02-10T20:47:29.842Z,19.52
2019-02-10T20:50:25.045Z,18.00
2019-02-10T20:53:20.781Z,18.60
2019-02-10T20:56:19.201Z,18.57
2019-02-10T20:59:06.336Z,18.17
2019-02-10T21:02:07.853Z,17.80
2019-02-10T21:04:56.325Z,17.73
2019-02-10T21:07:34.114Z,17.52
2019-02-10T21:10:26.347Z,18.32
2019-02-10T21:13:18.833Z,18.98
2019-02-10T21:16:12.202Z,17.23
2019-02-10T21:19:00.493Z,17.87
2019-02-10T21:21:52.696Z,18.02
2019-02-10T21:24:38.318Z,18.90
2019-02-10T21:27:27.069Z,18.73
2019-02-10T21:30:14.604Z,18.45
2019-02-10T21:33:02.772Z,18.50
2019-02-10T21:36:03.829Z,17.70
2019-02-10T21:38:48.302Z,18.73
2019-02-10T21:41:34.604Z,18.37
2019-02-10T21:44:18.848Z,19.87
2019-02-10T21:46:53.865Z,19.92
2019-02-10T21:49:26.082Z,20.00
2019-02-10T21:51:56.540Z,19.05
2019-02-10T21:54:26.868Z,19.98
2019-02-10T21:56:56.949Z,19.80
2019-02-10T21:59:28.319Z,19.80
2019-02-10T22:01:58.552Z,20.95
2019-02-10T22:04:28.888Z,20.65
2019-02-10T22:06:59.197Z,20.92
2019-02-10T22:09:30.600Z,21.80
2019-02-10T22:12:00.926Z,21.85
2019-02-10T22:14:31.544Z,22.67
2019-02-10T22:17:01.805Z,21.93
2019-02-10T22:19:32.058Z,21.85
2019-02-10T22:22:02.340Z,21.77
2019-02-10T22:24:32.600Z,21.90
2019-02-10T22:27:03.265Z,21.65
2019-02-10T22:29:33.581Z,21.05
2019-02-10T22:32:03.940Z,21.45
2019-02-10T22:34:34.277Z,21.45
2019-02-10T22:37:04.622Z,21.25
2019-02-10T22:39:34.875Z,21.48
2019-02-10T22:42:05.118Z,21.20
2019-02-10T22:44:35.431Z,20.50
2019-02-10T22:47:05.819Z,20.30
2019-02-10T22:49:36.166Z,19.67
2019-02-10T22:52:06.513Z,21.27
2019-02-10T22:54:36.869Z,19.98
2019-02-10T22:57:08.115Z,20.77
2019-02-10T22:59:38.413Z,19.73
2019-02-10T23:02:08.715Z,19.37
2019-02-10T23:04:39.915Z,19.48
2019-02-10T23:07:10.278Z,19.15
2019-02-10T23:09:40.654Z,18.60
2019-02-10T23:12:10.987Z,20.17
2019-02-10T23:14:41.342Z,19.23
2019-02-10T23:17:11.721Z,18.90
2019-02-10T23:19:42.175Z,19.20
2019-02-10T23:22:12.493Z,18.20
2019-02-10T23:24:42.763Z,18.80
2019-02-10T23:27:14.044Z,18.32
2019-02-10T23:29:44.387Z,18.60
2019-02-10T23:32:14.739Z,18.40
2019-02-10T23:34:45.052Z,18.00
2019-02-10T23:37:15.438Z,17.27
2019-02-10T23:39:45.785Z,18.10
2019-02-10T23:42:16.109Z,18.30
2019-02-10T23:44:46.425Z,17.10
2019-02-10T23:47:16.698Z,18.10
2019-02-10T23:49:47.292Z,17.37
2019-02-10T23:52:19.158Z,16.95
2019-02-10T23:54:49.464Z,16.57
2019-02-10T23:57:19.735Z,16.00
2019-02-10T23:59:50.170Z,17.02
